Nearby METAR Reports

 

KSJC - San Jose, California, USA
Distance from station: NE 9mi, 14km
Updated: Thu, 18-Apr-2019 6:53am PDT
Few Clouds
Few Clouds
 Wind from calm
Wind: Calm
Temperature: 54°F , 12°C
Dew Point: 46°F , 8°C
Humidity: 77%
Barometer: 30.15 inHg , 1021 hPa
Clouds: Few Clouds
Visibility: 10 miles , 16 km
Cloud details: Few Clouds 5000 ft
Few Clouds 15000 ft
2019/04/18 13:53 KSJC 181353Z 00000KT 10SM FEW050 FEW150 12/08 A3015 RMK AO2 SLP208 T01170083
KNUQ - Moffett Nas/Mtn, California, USA
Distance from station: N 9mi, 14km
Updated: Thu, 18-Apr-2019 6:56am PDT
Clear
Clear
 Wind from calm
Wind: Calm
Temperature: 52°F , 11°C
Dew Point: 46°F , 8°C
Humidity: 82%
Barometer: 30.15 inHg , 1021 hPa
Clouds: Clear
Visibility: 10 miles , 16 km
2019/04/18 13:56 KNUQ 181356Z 00000KT 10SM CLR 11/08 A3015 RMK AO2 SLP213 T01110083 $
 
KPAO - Palo Alto, California, USA
Distance from station: NNW 14mi, 23km
Updated: Thu, 18-Apr-2019 6:47am PDT
Clear
Clear
 Wind from calm
Wind: Calm
Temperature: 50°F , 10°C
Dew Point: 46°F , 8°C
Humidity: 88%
Barometer: 30.15 inHg , 1021 hPa
Clouds: Clear
Visibility: 10 miles , 16 km
2019/04/18 13:47 KPAO 181347Z 00000KT 10SM SKC 10/08 A3015
KRHV - San Jose/Reid, California, USA
Distance from station: ENE 12mi, 19km
Updated: Wed, 17-Apr-2019 9:47pm PDT
NOT Current
Clear
Clear
 Wind from NW
Wind: NW 5 mph , 7 km/h
Barometer: 30.17 inHg , 1021.7 hPa
Clouds: Clear
Visibility: 10 miles , 16 km
2019/04/18 04:47 KRHV 180447Z 31004KT 10SM SKC A3017 RMK TEMP/DP MISSING ETS WIND LAST
 
KOAK - Oakland, California, USA
Distance from station: NNW 31mi, 50km
Updated: Thu, 18-Apr-2019 6:53am PDT
Few Clouds
Few Clouds
 Wind from calm
Wind: Calm
Temperature: 52°F , 11°C
Dew Point: 46°F , 8°C
Humidity: 82%
Barometer: 30.15 inHg , 1021 hPa
Clouds: Few Clouds
Visibility: 10 miles , 16 km
Cloud details: Few Clouds 20000 ft
2019/04/18 13:53 KOAK 181353Z 00000KT 10SM FEW200 11/08 A3015 RMK AO2 SLP209 T01110083
KSQL - San Carlos Airpo, California, USA
Distance from station: NW 21mi, 34km
Updated: Thu, 18-Apr-2019 6:55am PDT
Clear
Clear
 Wind from calm
Wind: Calm
Temperature: 52°F , 11°C
Dew Point: 48°F , 9°C
Humidity: 88%
Barometer: 30.15 inHg , 1021 hPa
Clouds: Clear
Visibility: 8 miles , 13 km
2019/04/18 13:55 KSQL 181355Z AUTO 00000KT 8SM CLR 11/09 A3015 RMK AO2
 
KSFO - San Francisco, California, USA
Distance from station: NW 30mi, 49km
Updated: Thu, 18-Apr-2019 6:56am PDT
Few Clouds
Few Clouds
 Wind from calm
Wind: Calm
Temperature: 54°F , 12°C
Dew Point: 45°F , 7°C
Humidity: 72%
Barometer: 30.14 inHg , 1020.7 hPa
Clouds: Few Clouds
Visibility: 10 miles , 16 km
Cloud details: Few Clouds 20000 ft
2019/04/18 13:56 KSFO 181356Z 00000KT 10SM FEW200 12/07 A3014 RMK AO2 SLP206 T01170072
KE16 - San Martin, California, USA
Distance from station: ESE 27mi, 43km
Updated: Thu, 18-Apr-2019 7:35am PDT
Clear
Clear
 Wind from calm
Wind: Calm
Temperature: 50°F , 10°C
Dew Point: 46°F , 8°C
Humidity: 88%
Barometer: 30.18 inHg , 1022 hPa
Clouds: Clear
Visibility: 10 miles , 16 km
2019/04/18 14:35 KE16 181435Z AUTO 00000KT 10SM CLR 10/08 A3018 RMK AO2
 
KWVI - Watsonville, California, USA
Distance from station: SSE 27mi, 44km
Updated: Thu, 18-Apr-2019 6:53am PDT
Clear
Clear
 Wind from calm
Wind: Calm
Temperature: 48°F , 9°C
Dew Point: 46°F , 8°C
Humidity: 94%
Barometer: 30.15 inHg , 1021 hPa
Clouds: Clear
Visibility: 10 miles , 16 km
2019/04/18 13:53 KWVI 181353Z AUTO 00000KT 10SM CLR 09/08 A3015 RMK AO2 SLP210 T00890083
KHAF - Half Moon Bay, California, USA
Distance from station: WNW 31mi, 50km
Updated: Thu, 18-Apr-2019 7:35am PDT
Fog, Overcast
Fog, Overcast
 Wind from calm
Wind: Calm
Temperature: 48°F , 9°C
Dew Point: 48°F , 9°C
Humidity: 100%
Barometer: 30.16 inHg , 1021.3 hPa
Summary: Fog
Clouds: Overcast
Visibility: less than 1/4 mile , 0.4 km
Cloud details: Overcast 200 ft
2019/04/18 14:35 KHAF 181435Z AUTO 00000KT M1/4SM FG OVC002 09/09 A3016 RMK AO2
 
KHWD - Hayward, California, USA
Distance from station: N 28mi, 44km
Updated: Thu, 18-Apr-2019 6:54am PDT
Clear
Clear
 Wind from ENE
Wind: ENE 3 mph , 6 km/h
Temperature: 52°F , 11°C
Dew Point: 45°F , 7°C
Humidity: 77%
Barometer: 30.15 inHg , 1021 hPa
Clouds: Clear
Visibility: 10 miles , 16 km
2019/04/18 13:54 KHWD 181354Z 07003KT 10SM CLR 11/07 A3015 RMK AO2 SLP218 T01060072
KLVK - Livermore, California, USA
Distance from station: NNE 31mi, 51km
Updated: Thu, 18-Apr-2019 6:53am PDT
Clear
Clear
 Wind from calm
Wind: Calm
Temperature: 48°F , 9°C
Dew Point: 45°F , 7°C
Humidity: 87%
Barometer: 30.14 inHg , 1020.7 hPa
Clouds: Clear
Visibility: 10 miles , 16 km
2019/04/18 13:53 KLVK 181353Z AUTO 00000KT 10SM CLR 09/07 A3014 RMK AO2 SLP205 T00940067